sensor_id;sensor_type;location;lat;lon;timestamp;P1;durP1;ratioP1;P2;durP2;ratioP2
51216;SDS011;37283;49.760;8.648;2022-11-24T00:01:03;13.93;;;3.30;;
51216;SDS011;37283;49.760;8.648;2022-11-24T00:03:30;16.05;;;3.30;;
51216;SDS011;37283;49.760;8.648;2022-11-24T00:06:08;16.67;;;3.47;;
51216;SDS011;37283;49.760;8.648;2022-11-24T00:08:36;10.77;;;2.97;;
51216;SDS011;37283;49.760;8.648;2022-11-24T00:11:04;20.48;;;4.13;;
51216;SDS011;37283;49.760;8.648;2022-11-24T00:13:31;13.65;;;3.40;;
51216;SDS011;37283;49.760;8.648;2022-11-24T00:16:12;22.08;;;3.72;;
51216;SDS011;37283;49.760;8.648;2022-11-24T00:18:41;15.10;;;3.42;;
51216;SDS011;37283;49.760;8.648;2022-11-24T00:21:08;13.90;;;3.47;;
51216;SDS011;37283;49.760;8.648;2022-11-24T00:23:35;12.90;;;3.10;;
51216;SDS011;37283;49.760;8.648;2022-11-24T00:26:03;17.30;;;3.10;;
51216;SDS011;37283;49.760;8.648;2022-11-24T00:28:31;17.38;;;3.42;;
51216;SDS011;37283;49.760;8.648;2022-11-24T00:30:59;14.27;;;3.15;;
51216;SDS011;37283;49.760;8.648;2022-11-24T00:33:25;16.13;;;2.90;;
51216;SDS011;37283;49.760;8.648;2022-11-24T00:35:55;17.27;;;3.25;;
51216;SDS011;37283;49.760;8.648;2022-11-24T00:38:23;16.90;;;3.25;;
51216;SDS011;37283;49.760;8.648;2022-11-24T00:40:50;17.48;;;3.60;;
51216;SDS011;37283;49.760;8.648;2022-11-24T00:43:17;15.85;;;3.15;;
51216;SDS011;37283;49.760;8.648;2022-11-24T00:45:44;15.00;;;3.08;;
51216;SDS011;37283;49.760;8.648;2022-11-24T00:48:10;21.38;;;4.35;;
51216;SDS011;37283;49.760;8.648;2022-11-24T00:50:37;14.60;;;3.25;;
51216;SDS011;37283;49.760;8.648;2022-11-24T00:53:03;17.30;;;3.38;;
51216;SDS011;37283;49.760;8.648;2022-11-24T00:55:30;22.98;;;3.83;;
51216;SDS011;37283;49.760;8.648;2022-11-24T00:57:56;19.90;;;3.78;;
51216;SDS011;37283;49.760;8.648;2022-11-24T01:00:23;18.95;;;3.10;;
51216;SDS011;37283;49.760;8.648;2022-11-24T01:02:50;16.63;;;3.00;;
51216;SDS011;37283;49.760;8.648;2022-11-24T01:05:17;12.13;;;3.55;;
51216;SDS011;37283;49.760;8.648;2022-11-24T01:07:45;11.52;;;3.15;;
51216;SDS011;37283;49.760;8.648;2022-11-24T01:10:12;20.90;;;4.28;;
51216;SDS011;37283;49.760;8.648;2022-11-24T01:12:38;13.45;;;3.28;;
51216;SDS011;37283;49.760;8.648;2022-11-24T01:15:05;17.45;;;3.42;;
51216;SDS011;37283;49.760;8.648;2022-11-24T01:17:31;14.43;;;3.08;;
51216;SDS011;37283;49.760;8.648;2022-11-24T01:19:58;17.88;;;3.17;;
51216;SDS011;37283;49.760;8.648;2022-11-24T01:22:24;14.55;;;3.25;;
51216;SDS011;37283;49.760;8.648;2022-11-24T01:24:52;14.23;;;2.85;;
51216;SDS011;37283;49.760;8.648;2022-11-24T01:27:19;14.23;;;3.13;;
51216;SDS011;37283;49.760;8.648;2022-11-24T01:29:45;16.88;;;3.35;;
51216;SDS011;37283;49.760;8.648;2022-11-24T01:32:11;11.90;;;3.47;;
51216;SDS011;37283;49.760;8.648;2022-11-24T01:34:38;12.65;;;3.33;;
51216;SDS011;37283;49.760;8.648;2022-11-24T01:37:05;16.58;;;3.63;;
51216;SDS011;37283;49.760;8.648;2022-11-24T01:39:31;17.00;;;3.65;;
51216;SDS011;37283;49.760;8.648;2022-11-24T01:42:01;19.10;;;4.30;;
51216;SDS011;37283;49.760;8.648;2022-11-24T01:44:28;15.68;;;3.50;;
51216;SDS011;37283;49.760;8.648;2022-11-24T01:47:06;14.10;;;3.40;;
51216;SDS011;37283;49.760;8.648;2022-11-24T01:50:01;16.13;;;3.50;;
51216;SDS011;37283;49.760;8.648;2022-11-24T01:52:33;15.65;;;3.30;;
51216;SDS011;37283;49.760;8.648;2022-11-24T01:55:07;13.85;;;3.20;;
51216;SDS011;37283;49.760;8.648;2022-11-24T01:57:41;14.35;;;3.10;;
51216;SDS011;37283;49.760;8.648;2022-11-24T02:00:10;16.20;;;3.75;;
51216;SDS011;37283;49.760;8.648;2022-11-24T02:02:42;14.68;;;2.70;;
51216;SDS011;37283;49.760;8.648;2022-11-24T02:07:46;12.10;;;3.38;;
51216;SDS011;37283;49.760;8.648;2022-11-24T02:10:15;16.50;;;3.25;;
51216;SDS011;37283;49.760;8.648;2022-11-24T02:12:43;14.27;;;3.00;;
51216;SDS011;37283;49.760;8.648;2022-11-24T02:15:15;12.63;;;2.70;;
51216;SDS011;37283;49.760;8.648;2022-11-24T02:17:42;17.00;;;3.78;;
51216;SDS011;37283;49.760;8.648;2022-11-24T02:20:09;15.50;;;3.33;;
51216;SDS011;37283;49.760;8.648;2022-11-24T02:25:15;18.27;;;3.33;;
51216;SDS011;37283;49.760;8.648;2022-11-24T02:27:51;21.05;;;3.75;;
51216;SDS011;37283;49.760;8.648;2022-11-24T02:30:19;17.38;;;3.42;;
51216;SDS011;37283;49.760;8.648;2022-11-24T02:32:46;14.45;;;3.50;;
51216;SDS011;37283;49.760;8.648;2022-11-24T02:35:12;18.90;;;3.95;;
51216;SDS011;37283;49.760;8.648;2022-11-24T02:37:39;14.15;;;3.38;;
51216;SDS011;37283;49.760;8.648;2022-11-24T02:40:06;14.80;;;3.40;;
51216;SDS011;37283;49.760;8.648;2022-11-24T02:42:38;12.85;;;3.25;;
51216;SDS011;37283;49.760;8.648;2022-11-24T02:45:07;18.02;;;2.92;;
51216;SDS011;37283;49.760;8.648;2022-11-24T02:47:34;16.50;;;3.60;;
51216;SDS011;37283;49.760;8.648;2022-11-24T02:50:01;18.70;;;3.83;;
51216;SDS011;37283;49.760;8.648;2022-11-24T02:52:27;19.00;;;4.07;;
51216;SDS011;37283;49.760;8.648;2022-11-24T02:54:53;18.90;;;3.67;;
51216;SDS011;37283;49.760;8.648;2022-11-24T02:57:21;17.23;;;3.90;;
51216;SDS011;37283;49.760;8.648;2022-11-24T02:59:47;20.88;;;3.75;;
51216;SDS011;37283;49.760;8.648;2022-11-24T03:02:14;15.30;;;3.30;;
51216;SDS011;37283;49.760;8.648;2022-11-24T03:04:40;19.05;;;3.10;;
51216;SDS011;37283;49.760;8.648;2022-11-24T03:07:07;16.65;;;3.78;;
51216;SDS011;37283;49.760;8.648;2022-11-24T03:09:34;18.05;;;3.30;;
51216;SDS011;37283;49.760;8.648;2022-11-24T03:12:01;18.35;;;4.25;;
51216;SDS011;37283;49.760;8.648;2022-11-24T03:14:27;18.13;;;3.30;;
51216;SDS011;37283;49.760;8.648;2022-11-24T03:16:54;18.92;;;3.97;;
51216;SDS011;37283;49.760;8.648;2022-11-24T03:19:20;18.13;;;3.97;;
51216;SDS011;37283;49.760;8.648;2022-11-24T03:21:47;19.23;;;4.00;;
51216;SDS011;37283;49.760;8.648;2022-11-24T03:24:13;22.35;;;3.33;;
51216;SDS011;37283;49.760;8.648;2022-11-24T03:26:40;25.75;;;4.35;;
51216;SDS011;37283;49.760;8.648;2022-11-24T03:29:07;16.35;;;3.65;;
51216;SDS011;37283;49.760;8.648;2022-11-24T03:31:34;16.55;;;4.18;;
51216;SDS011;37283;49.760;8.648;2022-11-24T03:34:00;18.52;;;3.50;;
51216;SDS011;37283;49.760;8.648;2022-11-24T03:36:27;16.08;;;3.40;;
51216;SDS011;37283;49.760;8.648;2022-11-24T03:38:53;20.13;;;3.90;;
51216;SDS011;37283;49.760;8.648;2022-11-24T03:41:20;17.48;;;4.05;;
51216;SDS011;37283;49.760;8.648;2022-11-24T03:43:46;13.05;;;3.13;;
51216;SDS011;37283;49.760;8.648;2022-11-24T03:46:13;15.85;;;3.20;;
51216;SDS011;37283;49.760;8.648;2022-11-24T03:48:40;16.95;;;3.30;;
51216;SDS011;37283;49.760;8.648;2022-11-24T03:51:06;18.92;;;3.80;;
51216;SDS011;37283;49.760;8.648;2022-11-24T03:53:33;13.32;;;3.42;;
51216;SDS011;37283;49.760;8.648;2022-11-24T03:55:59;16.85;;;3.58;;
51216;SDS011;37283;49.760;8.648;2022-11-24T03:58:27;17.08;;;3.28;;
51216;SDS011;37283;49.760;8.648;2022-11-24T04:00:54;15.07;;;3.80;;
51216;SDS011;37283;49.760;8.648;2022-11-24T04:03:21;21.42;;;3.85;;
51216;SDS011;37283;49.760;8.648;2022-11-24T04:05:48;20.77;;;3.63;;
51216;SDS011;37283;49.760;8.648;2022-11-24T04:08:15;16.33;;;3.70;;
51216;SDS011;37283;49.760;8.648;2022-11-24T04:10:42;19.13;;;3.85;;
51216;SDS011;37283;49.760;8.648;2022-11-24T04:13:09;20.95;;;3.88;;
51216;SDS011;37283;49.760;8.648;2022-11-24T04:15:38;14.65;;;3.42;;
51216;SDS011;37283;49.760;8.648;2022-11-24T04:18:06;17.65;;;3.92;;
51216;SDS011;37283;49.760;8.648;2022-11-24T04:20:33;17.70;;;3.42;;
51216;SDS011;37283;49.760;8.648;2022-11-24T04:23:00;21.73;;;3.53;;
51216;SDS011;37283;49.760;8.648;2022-11-24T04:25:26;25.23;;;4.38;;
51216;SDS011;37283;49.760;8.648;2022-11-24T04:27:53;14.82;;;3.42;;
51216;SDS011;37283;49.760;8.648;2022-11-24T04:30:21;16.95;;;3.22;;
51216;SDS011;37283;49.760;8.648;2022-11-24T04:32:49;21.27;;;3.40;;
51216;SDS011;37283;49.760;8.648;2022-11-24T04:35:15;21.85;;;3.63;;
51216;SDS011;37283;49.760;8.648;2022-11-24T04:37:42;24.20;;;4.15;;
51216;SDS011;37283;49.760;8.648;2022-11-24T04:40:09;18.80;;;4.03;;
51216;SDS011;37283;49.760;8.648;2022-11-24T04:42:36;17.10;;;3.60;;
51216;SDS011;37283;49.760;8.648;2022-11-24T04:45:03;17.35;;;3.53;;
51216;SDS011;37283;49.760;8.648;2022-11-24T04:47:30;19.60;;;3.85;;
51216;SDS011;37283;49.760;8.648;2022-11-24T04:49:57;21.55;;;4.30;;
51216;SDS011;37283;49.760;8.648;2022-11-24T04:52:23;17.98;;;3.95;;
51216;SDS011;37283;49.760;8.648;2022-11-24T04:54:50;14.85;;;3.22;;
51216;SDS011;37283;49.760;8.648;2022-11-24T04:57:24;15.75;;;3.60;;
51216;SDS011;37283;49.760;8.648;2022-11-24T04:59:51;15.52;;;3.55;;
51216;SDS011;37283;49.760;8.648;2022-11-24T05:02:18;19.20;;;3.70;;
51216;SDS011;37283;49.760;8.648;2022-11-24T05:04:45;14.30;;;4.25;;
51216;SDS011;37283;49.760;8.648;2022-11-24T05:07:12;19.02;;;3.47;;
51216;SDS011;37283;49.760;8.648;2022-11-24T05:09:44;18.40;;;3.78;;
51216;SDS011;37283;49.760;8.648;2022-11-24T05:12:29;15.98;;;3.42;;
51216;SDS011;37283;49.760;8.648;2022-11-24T05:14:57;19.58;;;3.97;;
51216;SDS011;37283;49.760;8.648;2022-11-24T05:17:27;21.42;;;3.80;;
51216;SDS011;37283;49.760;8.648;2022-11-24T05:19:57;16.95;;;3.22;;
51216;SDS011;37283;49.760;8.648;2022-11-24T05:22:24;21.63;;;4.03;;
51216;SDS011;37283;49.760;8.648;2022-11-24T05:24:51;23.35;;;3.80;;
51216;SDS011;37283;49.760;8.648;2022-11-24T05:27:17;19.00;;;4.15;;
51216;SDS011;37283;49.760;8.648;2022-11-24T05:29:44;22.40;;;4.47;;
51216;SDS011;37283;49.760;8.648;2022-11-24T05:32:10;22.08;;;3.72;;
51216;SDS011;37283;49.760;8.648;2022-11-24T05:34:37;23.08;;;4.55;;
51216;SDS011;37283;49.760;8.648;2022-11-24T05:37:03;20.15;;;3.80;;
51216;SDS011;37283;49.760;8.648;2022-11-24T05:39:36;23.30;;;4.43;;
51216;SDS011;37283;49.760;8.648;2022-11-24T05:42:03;20.63;;;4.45;;
51216;SDS011;37283;49.760;8.648;2022-11-24T05:44:51;25.30;;;4.65;;
51216;SDS011;37283;49.760;8.648;2022-11-24T05:47:17;18.60;;;3.78;;
51216;SDS011;37283;49.760;8.648;2022-11-24T05:49:44;25.08;;;4.45;;
51216;SDS011;37283;49.760;8.648;2022-11-24T05:52:10;18.08;;;3.65;;
51216;SDS011;37283;49.760;8.648;2022-11-24T05:54:37;23.73;;;4.10;;
51216;SDS011;37283;49.760;8.648;2022-11-24T05:57:03;16.38;;;4.07;;
51216;SDS011;37283;49.760;8.648;2022-11-24T05:59:30;21.70;;;4.35;;
51216;SDS011;37283;49.760;8.648;2022-11-24T06:01:56;25.15;;;4.57;;
51216;SDS011;37283;49.760;8.648;2022-11-24T06:04:23;21.88;;;4.00;;
51216;SDS011;37283;49.760;8.648;2022-11-24T06:06:49;21.67;;;3.95;;
51216;SDS011;37283;49.760;8.648;2022-11-24T06:09:16;22.80;;;3.80;;
51216;SDS011;37283;49.760;8.648;2022-11-24T06:11:42;19.65;;;3.92;;
51216;SDS011;37283;49.760;8.648;2022-11-24T06:14:09;19.85;;;4.18;;
51216;SDS011;37283;49.760;8.648;2022-11-24T06:16:37;21.27;;;4.15;;
51216;SDS011;37283;49.760;8.648;2022-11-24T06:19:03;17.48;;;3.63;;
51216;SDS011;37283;49.760;8.648;2022-11-24T06:21:30;19.10;;;4.40;;
51216;SDS011;37283;49.760;8.648;2022-11-24T06:23:57;24.80;;;4.10;;
51216;SDS011;37283;49.760;8.648;2022-11-24T06:26:23;24.05;;;5.05;;
51216;SDS011;37283;49.760;8.648;2022-11-24T06:28:50;22.50;;;3.95;;
51216;SDS011;37283;49.760;8.648;2022-11-24T06:31:16;17.35;;;4.13;;
51216;SDS011;37283;49.760;8.648;2022-11-24T06:33:43;19.30;;;3.63;;
51216;SDS011;37283;49.760;8.648;2022-11-24T06:36:11;20.98;;;4.65;;
51216;SDS011;37283;49.760;8.648;2022-11-24T06:38:38;26.90;;;4.65;;
51216;SDS011;37283;49.760;8.648;2022-11-24T06:41:06;22.00;;;4.35;;
51216;SDS011;37283;49.760;8.648;2022-11-24T06:46:01;20.33;;;3.75;;
51216;SDS011;37283;49.760;8.648;2022-11-24T06:48:27;20.10;;;4.03;;
51216;SDS011;37283;49.760;8.648;2022-11-24T06:50:58;22.60;;;4.15;;
51216;SDS011;37283;49.760;8.648;2022-11-24T06:53:25;22.20;;;3.75;;
51216;SDS011;37283;49.760;8.648;2022-11-24T06:55:52;18.48;;;3.92;;
51216;SDS011;37283;49.760;8.648;2022-11-24T06:58:18;17.33;;;3.45;;
51216;SDS011;37283;49.760;8.648;2022-11-24T07:00:45;25.95;;;4.60;;
51216;SDS011;37283;49.760;8.648;2022-11-24T07:03:13;25.85;;;5.13;;
51216;SDS011;37283;49.760;8.648;2022-11-24T07:05:41;18.77;;;3.83;;
51216;SDS011;37283;49.760;8.648;2022-11-24T07:08:09;21.33;;;3.72;;
51216;SDS011;37283;49.760;8.648;2022-11-24T07:10:42;32.13;;;5.25;;
51216;SDS011;37283;49.760;8.648;2022-11-24T07:13:09;21.50;;;4.22;;
51216;SDS011;37283;49.760;8.648;2022-11-24T07:15:35;28.52;;;4.32;;
51216;SDS011;37283;49.760;8.648;2022-11-24T07:18:02;23.17;;;3.90;;
51216;SDS011;37283;49.760;8.648;2022-11-24T07:20:28;21.33;;;3.97;;
51216;SDS011;37283;49.760;8.648;2022-11-24T07:22:55;24.33;;;4.90;;
51216;SDS011;37283;49.760;8.648;2022-11-24T07:25:25;21.15;;;4.95;;
51216;SDS011;37283;49.760;8.648;2022-11-24T07:27:58;19.95;;;4.40;;
51216;SDS011;37283;49.760;8.648;2022-11-24T07:30:25;18.10;;;3.50;;
51216;SDS011;37283;49.760;8.648;2022-11-24T07:32:59;18.42;;;3.75;;
51216;SDS011;37283;49.760;8.648;2022-11-24T07:35:26;19.92;;;3.80;;
51216;SDS011;37283;49.760;8.648;2022-11-24T07:37:54;19.60;;;2.92;;
51216;SDS011;37283;49.760;8.648;2022-11-24T07:40:21;22.95;;;3.45;;
51216;SDS011;37283;49.760;8.648;2022-11-24T07:42:48;14.20;;;2.63;;
51216;SDS011;37283;49.760;8.648;2022-11-24T07:45:15;12.35;;;2.83;;
51216;SDS011;37283;49.760;8.648;2022-11-24T07:47:41;15.48;;;3.05;;
51216;SDS011;37283;49.760;8.648;2022-11-24T07:50:08;15.30;;;2.83;;
51216;SDS011;37283;49.760;8.648;2022-11-24T07:52:35;14.65;;;3.22;;
51216;SDS011;37283;49.760;8.648;2022-11-24T07:55:02;17.20;;;3.05;;
51216;SDS011;37283;49.760;8.648;2022-11-24T07:57:30;14.63;;;3.05;;
51216;SDS011;37283;49.760;8.648;2022-11-24T07:59:56;15.82;;;2.90;;
51216;SDS011;37283;49.760;8.648;2022-11-24T08:02:23;11.32;;;2.58;;
51216;SDS011;37283;49.760;8.648;2022-11-24T08:04:49;17.20;;;3.67;;
51216;SDS011;37283;49.760;8.648;2022-11-24T08:07:16;12.27;;;2.80;;
51216;SDS011;37283;49.760;8.648;2022-11-24T08:09:42;15.43;;;3.10;;
51216;SDS011;37283;49.760;8.648;2022-11-24T08:12:09;11.98;;;2.67;;
51216;SDS011;37283;49.760;8.648;2022-11-24T08:14:35;10.65;;;2.90;;
51216;SDS011;37283;49.760;8.648;2022-11-24T08:17:02;16.00;;;3.10;;
51216;SDS011;37283;49.760;8.648;2022-11-24T08:19:29;16.98;;;3.22;;
51216;SDS011;37283;49.760;8.648;2022-11-24T08:21:57;10.95;;;2.42;;
51216;SDS011;37283;49.760;8.648;2022-11-24T08:24:23;12.70;;;2.60;;
51216;SDS011;37283;49.760;8.648;2022-11-24T08:26:50;10.40;;;3.03;;
51216;SDS011;37283;49.760;8.648;2022-11-24T08:29:16;13.77;;;2.90;;
51216;SDS011;37283;49.760;8.648;2022-11-24T08:31:42;14.20;;;2.95;;
51216;SDS011;37283;49.760;8.648;2022-11-24T08:34:09;13.35;;;2.92;;
51216;SDS011;37283;49.760;8.648;2022-11-24T08:36:35;14.00;;;3.30;;
51216;SDS011;37283;49.760;8.648;2022-11-24T08:39:02;9.68;;;2.80;;
51216;SDS011;37283;49.760;8.648;2022-11-24T08:41:28;9.55;;;2.40;;
51216;SDS011;37283;49.760;8.648;2022-11-24T08:43:55;14.68;;;3.10;;
51216;SDS011;37283;49.760;8.648;2022-11-24T08:46:22;11.32;;;2.60;;
51216;SDS011;37283;49.760;8.648;2022-11-24T08:48:52;15.75;;;2.45;;
51216;SDS011;37283;49.760;8.648;2022-11-24T08:51:20;19.52;;;3.90;;
51216;SDS011;37283;49.760;8.648;2022-11-24T08:53:52;12.68;;;3.13;;
51216;SDS011;37283;49.760;8.648;2022-11-24T08:56:20;12.95;;;3.58;;
51216;SDS011;37283;49.760;8.648;2022-11-24T08:58:47;14.75;;;3.25;;
51216;SDS011;37283;49.760;8.648;2022-11-24T09:01:14;13.82;;;2.55;;
51216;SDS011;37283;49.760;8.648;2022-11-24T09:03:42;16.13;;;3.15;;
51216;SDS011;37283;49.760;8.648;2022-11-24T09:06:23;20.70;;;3.65;;
51216;SDS011;37283;49.760;8.648;2022-11-24T09:08:52;15.95;;;3.58;;
51216;SDS011;37283;49.760;8.648;2022-11-24T09:11:19;12.02;;;3.05;;
51216;SDS011;37283;49.760;8.648;2022-11-24T09:13:46;13.50;;;2.80;;
51216;SDS011;37283;49.760;8.648;2022-11-24T09:16:17;11.65;;;3.22;;
51216;SDS011;37283;49.760;8.648;2022-11-24T09:18:46;13.50;;;3.15;;
51216;SDS011;37283;49.760;8.648;2022-11-24T09:21:13;9.15;;;2.53;;
51216;SDS011;37283;49.760;8.648;2022-11-24T09:23:41;14.95;;;2.58;;
51216;SDS011;37283;49.760;8.648;2022-11-24T09:26:09;16.27;;;3.70;;
51216;SDS011;37283;49.760;8.648;2022-11-24T09:28:40;15.02;;;3.85;;
51216;SDS011;37283;49.760;8.648;2022-11-24T09:31:07;14.60;;;3.08;;
51216;SDS011;37283;49.760;8.648;2022-11-24T09:33:36;13.57;;;3.35;;
51216;SDS011;37283;49.760;8.648;2022-11-24T09:36:04;13.05;;;2.60;;
51216;SDS011;37283;49.760;8.648;2022-11-24T09:38:31;11.77;;;3.22;;
51216;SDS011;37283;49.760;8.648;2022-11-24T09:44:01;10.32;;;2.17;;
51216;SDS011;37283;49.760;8.648;2022-11-24T09:50:02;12.07;;;2.92;;
51216;SDS011;37283;49.760;8.648;2022-11-24T09:55:23;13.38;;;3.30;;
51216;SDS011;37283;49.760;8.648;2022-11-24T10:00:38;15.68;;;3.22;;
51216;SDS011;37283;49.760;8.648;2022-11-24T10:03:07;14.02;;;3.38;;
51216;SDS011;37283;49.760;8.648;2022-11-24T10:05:40;14.13;;;3.13;;
51216;SDS011;37283;49.760;8.648;2022-11-24T10:11:10;16.20;;;3.45;;
51216;SDS011;37283;49.760;8.648;2022-11-24T10:13:55;11.70;;;2.72;;
51216;SDS011;37283;49.760;8.648;2022-11-24T10:16:49;15.70;;;3.67;;
51216;SDS011;37283;49.760;8.648;2022-11-24T10:19:44;16.67;;;3.33;;
51216;SDS011;37283;49.760;8.648;2022-11-24T10:22:28;11.25;;;2.60;;
51216;SDS011;37283;49.760;8.648;2022-11-24T10:25:24;15.23;;;3.20;;
51216;SDS011;37283;49.760;8.648;2022-11-24T10:27:56;14.88;;;3.15;;
51216;SDS011;37283;49.760;8.648;2022-11-24T10:30:25;14.15;;;2.90;;
51216;SDS011;37283;49.760;8.648;2022-11-24T10:32:55;13.63;;;2.97;;
51216;SDS011;37283;49.760;8.648;2022-11-24T10:35:27;16.05;;;3.15;;
51216;SDS011;37283;49.760;8.648;2022-11-24T10:40:59;13.68;;;3.00;;
51216;SDS011;37283;49.760;8.648;2022-11-24T10:43:28;10.93;;;3.38;;
51216;SDS011;37283;49.760;8.648;2022-11-24T10:45:58;14.80;;;2.92;;
51216;SDS011;37283;49.760;8.648;2022-11-24T10:48:42;10.23;;;2.50;;
51216;SDS011;37283;49.760;8.648;2022-11-24T10:54:16;10.85;;;3.10;;
51216;SDS011;37283;49.760;8.648;2022-11-24T10:56:45;10.10;;;2.58;;
51216;SDS011;37283;49.760;8.648;2022-11-24T11:01:46;12.05;;;2.85;;
51216;SDS011;37283;49.760;8.648;2022-11-24T11:04:18;15.30;;;2.88;;
51216;SDS011;37283;49.760;8.648;2022-11-24T11:06:45;12.45;;;3.00;;
51216;SDS011;37283;49.760;8.648;2022-11-24T11:11:38;13.32;;;2.88;;
51216;SDS011;37283;49.760;8.648;2022-11-24T11:14:05;7.93;;;1.80;;
51216;SDS011;37283;49.760;8.648;2022-11-24T11:16:37;12.55;;;2.67;;
51216;SDS011;37283;49.760;8.648;2022-11-24T11:25:00;12.75;;;3.60;;
51216;SDS011;37283;49.760;8.648;2022-11-24T11:27:29;9.60;;;2.42;;
51216;SDS011;37283;49.760;8.648;2022-11-24T11:30:04;10.95;;;3.13;;
51216;SDS011;37283;49.760;8.648;2022-11-24T11:33:02;11.60;;;3.20;;
51216;SDS011;37283;49.760;8.648;2022-11-24T11:35:48;12.95;;;2.75;;
51216;SDS011;37283;49.760;8.648;2022-11-24T11:38:15;17.52;;;3.28;;
51216;SDS011;37283;49.760;8.648;2022-11-24T11:40:42;12.93;;;2.70;;
51216;SDS011;37283;49.760;8.648;2022-11-24T11:43:12;11.18;;;2.28;;
51216;SDS011;37283;49.760;8.648;2022-11-24T11:45:44;10.82;;;2.28;;
51216;SDS011;37283;49.760;8.648;2022-11-24T11:48:20;13.05;;;2.90;;
51216;SDS011;37283;49.760;8.648;2022-11-24T11:50:53;12.90;;;3.17;;
51216;SDS011;37283;49.760;8.648;2022-11-24T11:53:47;15.57;;;3.13;;
51216;SDS011;37283;49.760;8.648;2022-11-24T11:56:24;13.13;;;2.75;;
51216;SDS011;37283;49.760;8.648;2022-11-24T12:07:30;11.95;;;2.55;;
51216;SDS011;37283;49.760;8.648;2022-11-24T12:12:39;12.82;;;3.00;;
51216;SDS011;37283;49.760;8.648;2022-11-24T12:15:30;9.93;;;2.88;;
51216;SDS011;37283;49.760;8.648;2022-11-24T12:18:13;11.95;;;2.72;;
51216;SDS011;37283;49.760;8.648;2022-11-24T12:21:18;11.57;;;3.22;;
51216;SDS011;37283;49.760;8.648;2022-11-24T12:27:03;15.25;;;2.75;;
51216;SDS011;37283;49.760;8.648;2022-11-24T12:35:07;10.77;;;2.90;;
51216;SDS011;37283;49.760;8.648;2022-11-24T12:43:50;12.07;;;2.88;;
51216;SDS011;37283;49.760;8.648;2022-11-24T12:49:29;10.70;;;2.60;;
51216;SDS011;37283;49.760;8.648;2022-11-24T12:51:58;9.60;;;2.55;;
51216;SDS011;37283;49.760;8.648;2022-11-24T12:54:30;8.95;;;2.53;;
51216;SDS011;37283;49.760;8.648;2022-11-24T12:59:42;13.40;;;2.70;;
51216;SDS011;37283;49.760;8.648;2022-11-24T13:04:45;12.40;;;2.42;;
51216;SDS011;37283;49.760;8.648;2022-11-24T13:13:13;7.60;;;2.25;;
51216;SDS011;37283;49.760;8.648;2022-11-24T13:26:46;13.02;;;3.00;;
51216;SDS011;37283;49.760;8.648;2022-11-24T13:29:45;14.23;;;2.50;;
51216;SDS011;37283;49.760;8.648;2022-11-24T13:37:18;11.57;;;2.40;;
51216;SDS011;37283;49.760;8.648;2022-11-24T13:43:22;10.05;;;2.15;;
51216;SDS011;37283;49.760;8.648;2022-11-24T13:53:34;12.80;;;2.72;;
51216;SDS011;37283;49.760;8.648;2022-11-24T14:06:59;10.40;;;2.58;;
51216;SDS011;37283;49.760;8.648;2022-11-24T14:09:35;8.95;;;2.60;;
51216;SDS011;37283;49.760;8.648;2022-11-24T14:12:21;9.73;;;3.03;;
51216;SDS011;37283;49.760;8.648;2022-11-24T14:14:49;11.68;;;2.35;;
51216;SDS011;37283;49.760;8.648;2022-11-24T14:19:48;12.68;;;2.45;;
51216;SDS011;37283;49.760;8.648;2022-11-24T14:22:17;9.32;;;3.00;;
51216;SDS011;37283;49.760;8.648;2022-11-24T14:27:19;13.02;;;2.70;;
51216;SDS011;37283;49.760;8.648;2022-11-24T14:29:52;10.95;;;3.20;;
51216;SDS011;37283;49.760;8.648;2022-11-24T14:32:20;11.63;;;2.83;;
51216;SDS011;37283;49.760;8.648;2022-11-24T14:34:47;10.15;;;2.78;;
51216;SDS011;37283;49.760;8.648;2022-11-24T14:37:13;11.25;;;2.50;;
51216;SDS011;37283;49.760;8.648;2022-11-24T14:39:40;12.35;;;2.70;;
51216;SDS011;37283;49.760;8.648;2022-11-24T14:42:25;13.60;;;3.38;;
51216;SDS011;37283;49.760;8.648;2022-11-24T14:44:56;12.00;;;3.30;;
51216;SDS011;37283;49.760;8.648;2022-11-24T14:47:31;9.50;;;3.05;;
51216;SDS011;37283;49.760;8.648;2022-11-24T14:50:06;12.38;;;3.38;;
51216;SDS011;37283;49.760;8.648;2022-11-24T14:52:35;16.00;;;2.80;;
51216;SDS011;37283;49.760;8.648;2022-11-24T14:55:21;14.85;;;3.10;;
51216;SDS011;37283;49.760;8.648;2022-11-24T14:57:49;12.73;;;3.28;;
51216;SDS011;37283;49.760;8.648;2022-11-24T15:00:24;13.27;;;2.72;;
51216;SDS011;37283;49.760;8.648;2022-11-24T15:05:52;10.43;;;2.70;;
51216;SDS011;37283;49.760;8.648;2022-11-24T15:08:21;11.30;;;3.03;;
51216;SDS011;37283;49.760;8.648;2022-11-24T15:10:54;12.52;;;2.40;;
51216;SDS011;37283;49.760;8.648;2022-11-24T15:13:25;13.07;;;3.05;;
51216;SDS011;37283;49.760;8.648;2022-11-24T15:16:02;13.02;;;3.22;;
51216;SDS011;37283;49.760;8.648;2022-11-24T15:18:36;12.45;;;2.65;;
51216;SDS011;37283;49.760;8.648;2022-11-24T15:21:07;11.50;;;2.75;;
51216;SDS011;37283;49.760;8.648;2022-11-24T15:23:39;14.20;;;3.15;;
51216;SDS011;37283;49.760;8.648;2022-11-24T15:31:08;10.45;;;2.60;;
51216;SDS011;37283;49.760;8.648;2022-11-24T15:33:36;11.35;;;2.97;;
51216;SDS011;37283;49.760;8.648;2022-11-24T15:36:03;14.10;;;3.25;;
51216;SDS011;37283;49.760;8.648;2022-11-24T15:38:30;9.38;;;2.95;;
51216;SDS011;37283;49.760;8.648;2022-11-24T15:40:57;12.32;;;2.65;;
51216;SDS011;37283;49.760;8.648;2022-11-24T15:43:31;10.68;;;2.33;;
51216;SDS011;37283;49.760;8.648;2022-11-24T15:46:00;8.95;;;2.65;;
51216;SDS011;37283;49.760;8.648;2022-11-24T15:48:27;13.32;;;3.03;;
51216;SDS011;37283;49.760;8.648;2022-11-24T15:50:54;11.30;;;2.60;;
51216;SDS011;37283;49.760;8.648;2022-11-24T15:53:35;12.30;;;2.90;;
51216;SDS011;37283;49.760;8.648;2022-11-24T15:56:05;12.57;;;2.83;;
51216;SDS011;37283;49.760;8.648;2022-11-24T15:58:33;17.83;;;3.00;;
51216;SDS011;37283;49.760;8.648;2022-11-24T16:00:59;15.98;;;2.78;;
51216;SDS011;37283;49.760;8.648;2022-11-24T16:03:26;18.45;;;3.28;;
51216;SDS011;37283;49.760;8.648;2022-11-24T16:06:13;14.52;;;3.20;;
51216;SDS011;37283;49.760;8.648;2022-11-24T16:08:49;12.25;;;2.47;;
51216;SDS011;37283;49.760;8.648;2022-11-24T16:11:15;19.70;;;3.50;;
51216;SDS011;37283;49.760;8.648;2022-11-24T16:13:42;13.13;;;3.38;;
51216;SDS011;37283;49.760;8.648;2022-11-24T16:16:16;15.73;;;3.28;;
51216;SDS011;37283;49.760;8.648;2022-11-24T16:18:43;13.98;;;2.85;;
51216;SDS011;37283;49.760;8.648;2022-11-24T16:21:10;19.98;;;3.30;;
51216;SDS011;37283;49.760;8.648;2022-11-24T16:23:36;21.25;;;3.25;;
51216;SDS011;37283;49.760;8.648;2022-11-24T16:26:03;13.73;;;2.70;;
51216;SDS011;37283;49.760;8.648;2022-11-24T16:28:30;11.77;;;2.88;;
51216;SDS011;37283;49.760;8.648;2022-11-24T16:30:57;14.20;;;3.10;;
51216;SDS011;37283;49.760;8.648;2022-11-24T16:33:23;11.95;;;2.65;;
51216;SDS011;37283;49.760;8.648;2022-11-24T16:35:50;10.65;;;3.05;;
51216;SDS011;37283;49.760;8.648;2022-11-24T16:38:17;19.45;;;2.75;;
51216;SDS011;37283;49.760;8.648;2022-11-24T16:40:49;13.13;;;2.95;;
51216;SDS011;37283;49.760;8.648;2022-11-24T16:43:19;15.18;;;3.25;;
51216;SDS011;37283;49.760;8.648;2022-11-24T16:45:47;11.00;;;2.90;;
51216;SDS011;37283;49.760;8.648;2022-11-24T16:48:19;13.90;;;2.60;;
51216;SDS011;37283;49.760;8.648;2022-11-24T16:50:45;10.18;;;2.72;;
51216;SDS011;37283;49.760;8.648;2022-11-24T16:53:12;15.85;;;3.83;;
51216;SDS011;37283;49.760;8.648;2022-11-24T16:55:38;13.57;;;3.17;;
51216;SDS011;37283;49.760;8.648;2022-11-24T16:58:05;12.27;;;3.05;;
51216;SDS011;37283;49.760;8.648;2022-11-24T17:00:31;13.75;;;2.80;;